sensor_id;sensor_type;location;lat;lon;timestamp;P1;durP1;ratioP1;P2;durP2;ratioP2
16173;SDS011;14031;50.158;8.626;2023-02-01T00:02:16;2.93;;;2.73;;
16173;SDS011;14031;50.158;8.626;2023-02-01T00:04:43;3.97;;;3.33;;
16173;SDS011;14031;50.158;8.626;2023-02-01T00:07:10;3.63;;;3.30;;
16173;SDS011;14031;50.158;8.626;2023-02-01T00:09:37;3.93;;;3.20;;
16173;SDS011;14031;50.158;8.626;2023-02-01T00:12:04;5.10;;;3.53;;
16173;SDS011;14031;50.158;8.626;2023-02-01T00:14:31;2.90;;;2.70;;
16173;SDS011;14031;50.158;8.626;2023-02-01T00:17:03;3.93;;;3.53;;
16173;SDS011;14031;50.158;8.626;2023-02-01T00:19:33;3.80;;;3.50;;
16173;SDS011;14031;50.158;8.626;2023-02-01T00:22:00;3.70;;;3.30;;
16173;SDS011;14031;50.158;8.626;2023-02-01T00:24:27;3.27;;;3.07;;
16173;SDS011;14031;50.158;8.626;2023-02-01T00:26:54;6.10;;;3.40;;
16173;SDS011;14031;50.158;8.626;2023-02-01T00:29:20;3.97;;;3.53;;
16173;SDS011;14031;50.158;8.626;2023-02-01T00:31:49;3.73;;;3.53;;
16173;SDS011;14031;50.158;8.626;2023-02-01T00:34:17;3.80;;;3.50;;
16173;SDS011;14031;50.158;8.626;2023-02-01T00:36:46;3.40;;;3.20;;
16173;SDS011;14031;50.158;8.626;2023-02-01T00:39:13;3.47;;;3.07;;
16173;SDS011;14031;50.158;8.626;2023-02-01T00:41:40;3.87;;;3.60;;
16173;SDS011;14031;50.158;8.626;2023-02-01T00:44:06;3.37;;;3.13;;
16173;SDS011;14031;50.158;8.626;2023-02-01T00:46:33;4.40;;;3.23;;
16173;SDS011;14031;50.158;8.626;2023-02-01T00:49:00;2.93;;;2.83;;
16173;SDS011;14031;50.158;8.626;2023-02-01T00:51:27;3.70;;;3.50;;
16173;SDS011;14031;50.158;8.626;2023-02-01T00:53:57;3.50;;;3.30;;
16173;SDS011;14031;50.158;8.626;2023-02-01T00:56:23;3.77;;;3.20;;
16173;SDS011;14031;50.158;8.626;2023-02-01T00:58:52;3.83;;;3.20;;
16173;SDS011;14031;50.158;8.626;2023-02-01T01:01:19;3.93;;;3.47;;
16173;SDS011;14031;50.158;8.626;2023-02-01T01:03:48;3.67;;;3.37;;
16173;SDS011;14031;50.158;8.626;2023-02-01T01:06:17;3.60;;;3.40;;
16173;SDS011;14031;50.158;8.626;2023-02-01T01:08:46;3.40;;;3.20;;
16173;SDS011;14031;50.158;8.626;2023-02-01T01:11:15;3.73;;;3.53;;
16173;SDS011;14031;50.158;8.626;2023-02-01T01:13:46;3.50;;;3.30;;
16173;SDS011;14031;50.158;8.626;2023-02-01T01:16:13;3.47;;;3.27;;
16173;SDS011;14031;50.158;8.626;2023-02-01T01:18:41;3.90;;;3.47;;
16173;SDS011;14031;50.158;8.626;2023-02-01T01:21:09;3.40;;;3.20;;
16173;SDS011;14031;50.158;8.626;2023-02-01T01:23:37;3.67;;;3.47;;
16173;SDS011;14031;50.158;8.626;2023-02-01T01:26:04;3.50;;;3.20;;
16173;SDS011;14031;50.158;8.626;2023-02-01T01:28:33;3.57;;;3.37;;
16173;SDS011;14031;50.158;8.626;2023-02-01T01:31:00;4.00;;;3.77;;
16173;SDS011;14031;50.158;8.626;2023-02-01T01:33:27;5.20;;;3.90;;
16173;SDS011;14031;50.158;8.626;2023-02-01T01:35:54;3.57;;;3.27;;
16173;SDS011;14031;50.158;8.626;2023-02-01T01:38:21;4.00;;;3.60;;
16173;SDS011;14031;50.158;8.626;2023-02-01T01:40:48;3.97;;;3.67;;
16173;SDS011;14031;50.158;8.626;2023-02-01T01:43:16;4.20;;;3.80;;
16173;SDS011;14031;50.158;8.626;2023-02-01T01:45:50;3.80;;;3.50;;
16173;SDS011;14031;50.158;8.626;2023-02-01T01:48:18;5.87;;;3.60;;
16173;SDS011;14031;50.158;8.626;2023-02-01T01:50:50;4.30;;;4.00;;
16173;SDS011;14031;50.158;8.626;2023-02-01T01:53:22;4.10;;;3.70;;
16173;SDS011;14031;50.158;8.626;2023-02-01T01:55:52;6.00;;;3.80;;
16173;SDS011;14031;50.158;8.626;2023-02-01T01:58:22;4.13;;;3.83;;
16173;SDS011;14031;50.158;8.626;2023-02-01T02:00:53;4.90;;;4.10;;
16173;SDS011;14031;50.158;8.626;2023-02-01T02:03:23;5.67;;;4.10;;
16173;SDS011;14031;50.158;8.626;2023-02-01T02:05:53;4.33;;;4.03;;
16173;SDS011;14031;50.158;8.626;2023-02-01T02:08:23;4.70;;;4.23;;
16173;SDS011;14031;50.158;8.626;2023-02-01T02:10:52;5.67;;;5.27;;
16173;SDS011;14031;50.158;8.626;2023-02-01T02:13:25;5.00;;;4.60;;
16173;SDS011;14031;50.158;8.626;2023-02-01T02:15:59;5.47;;;4.87;;
16173;SDS011;14031;50.158;8.626;2023-02-01T02:18:32;5.37;;;4.87;;
16173;SDS011;14031;50.158;8.626;2023-02-01T02:21:16;5.97;;;4.87;;
16173;SDS011;14031;50.158;8.626;2023-02-01T02:27:16;4.73;;;4.43;;
16173;SDS011;14031;50.158;8.626;2023-02-01T02:30:02;5.17;;;4.87;;
16173;SDS011;14031;50.158;8.626;2023-02-01T02:32:56;5.43;;;4.93;;
16173;SDS011;14031;50.158;8.626;2023-02-01T02:35:57;6.17;;;5.67;;
16173;SDS011;14031;50.158;8.626;2023-02-01T02:38:29;4.83;;;4.50;;
16173;SDS011;14031;50.158;8.626;2023-02-01T02:41:02;5.73;;;5.10;;
16173;SDS011;14031;50.158;8.626;2023-02-01T02:44:00;5.50;;;5.03;;
16173;SDS011;14031;50.158;8.626;2023-02-01T02:46:53;5.27;;;4.87;;
16173;SDS011;14031;50.158;8.626;2023-02-01T02:49:47;5.23;;;4.83;;
16173;SDS011;14031;50.158;8.626;2023-02-01T02:52:38;6.13;;;4.90;;
16173;SDS011;14031;50.158;8.626;2023-02-01T02:55:26;4.90;;;4.60;;
16173;SDS011;14031;50.158;8.626;2023-02-01T02:57:54;4.63;;;4.33;;
16173;SDS011;14031;50.158;8.626;2023-02-01T03:00:40;7.80;;;5.63;;
16173;SDS011;14031;50.158;8.626;2023-02-01T03:03:26;5.53;;;5.00;;
16173;SDS011;14031;50.158;8.626;2023-02-01T03:06:13;5.30;;;4.73;;
16173;SDS011;14031;50.158;8.626;2023-02-01T03:08:42;5.00;;;4.70;;
16173;SDS011;14031;50.158;8.626;2023-02-01T03:11:10;5.50;;;5.00;;
16173;SDS011;14031;50.158;8.626;2023-02-01T03:13:40;5.17;;;4.83;;
16173;SDS011;14031;50.158;8.626;2023-02-01T03:16:11;4.93;;;4.43;;
16173;SDS011;14031;50.158;8.626;2023-02-01T03:18:48;5.50;;;5.10;;
16173;SDS011;14031;50.158;8.626;2023-02-01T03:21:21;5.57;;;4.97;;
16173;SDS011;14031;50.158;8.626;2023-02-01T03:23:51;5.83;;;5.27;;
16173;SDS011;14031;50.158;8.626;2023-02-01T03:26:22;5.60;;;5.07;;
16173;SDS011;14031;50.158;8.626;2023-02-01T03:28:54;5.70;;;5.20;;
16173;SDS011;14031;50.158;8.626;2023-02-01T03:31:26;7.00;;;5.90;;
16173;SDS011;14031;50.158;8.626;2023-02-01T03:33:54;5.50;;;5.00;;
16173;SDS011;14031;50.158;8.626;2023-02-01T03:36:25;5.57;;;5.10;;
16173;SDS011;14031;50.158;8.626;2023-02-01T03:38:55;5.83;;;5.23;;
16173;SDS011;14031;50.158;8.626;2023-02-01T03:41:31;5.80;;;5.30;;
16173;SDS011;14031;50.158;8.626;2023-02-01T03:44:02;6.17;;;5.67;;
16173;SDS011;14031;50.158;8.626;2023-02-01T03:46:35;5.20;;;4.90;;
16173;SDS011;14031;50.158;8.626;2023-02-01T03:49:06;6.03;;;4.60;;
16173;SDS011;14031;50.158;8.626;2023-02-01T03:51:37;6.67;;;4.83;;
16173;SDS011;14031;50.158;8.626;2023-02-01T03:54:06;4.97;;;4.50;;
16173;SDS011;14031;50.158;8.626;2023-02-01T03:56:37;6.63;;;4.53;;
16173;SDS011;14031;50.158;8.626;2023-02-01T03:59:09;5.33;;;4.47;;
16173;SDS011;14031;50.158;8.626;2023-02-01T04:01:36;6.60;;;4.20;;
16173;SDS011;14031;50.158;8.626;2023-02-01T04:04:03;4.77;;;4.30;;
16173;SDS011;14031;50.158;8.626;2023-02-01T04:06:30;4.80;;;4.40;;
16173;SDS011;14031;50.158;8.626;2023-02-01T04:08:58;6.73;;;4.43;;
16173;SDS011;14031;50.158;8.626;2023-02-01T04:11:25;4.93;;;4.50;;
16173;SDS011;14031;50.158;8.626;2023-02-01T04:13:52;4.60;;;4.20;;
16173;SDS011;14031;50.158;8.626;2023-02-01T04:16:19;5.73;;;4.30;;
16173;SDS011;14031;50.158;8.626;2023-02-01T04:18:46;4.73;;;4.33;;
16173;SDS011;14031;50.158;8.626;2023-02-01T04:21:12;4.73;;;4.33;;
16173;SDS011;14031;50.158;8.626;2023-02-01T04:23:39;6.17;;;4.40;;
16173;SDS011;14031;50.158;8.626;2023-02-01T04:26:08;4.30;;;4.00;;
16173;SDS011;14031;50.158;8.626;2023-02-01T04:28:35;5.20;;;4.33;;
16173;SDS011;14031;50.158;8.626;2023-02-01T04:31:04;5.37;;;4.87;;
16173;SDS011;14031;50.158;8.626;2023-02-01T04:33:30;4.40;;;4.10;;
16173;SDS011;14031;50.158;8.626;2023-02-01T04:35:57;4.63;;;4.20;;
16173;SDS011;14031;50.158;8.626;2023-02-01T04:38:24;4.80;;;4.40;;
16173;SDS011;14031;50.158;8.626;2023-02-01T04:40:51;5.00;;;4.60;;
16173;SDS011;14031;50.158;8.626;2023-02-01T04:43:20;8.10;;;4.80;;
16173;SDS011;14031;50.158;8.626;2023-02-01T04:45:47;6.87;;;4.67;;
16173;SDS011;14031;50.158;8.626;2023-02-01T04:48:14;6.83;;;4.53;;
16173;SDS011;14031;50.158;8.626;2023-02-01T04:50:42;6.07;;;4.63;;
16173;SDS011;14031;50.158;8.626;2023-02-01T04:53:12;7.90;;;4.97;;
16173;SDS011;14031;50.158;8.626;2023-02-01T04:55:39;5.00;;;4.57;;
16173;SDS011;14031;50.158;8.626;2023-02-01T04:58:06;5.20;;;4.80;;
16173;SDS011;14031;50.158;8.626;2023-02-01T05:00:34;8.10;;;5.20;;
16173;SDS011;14031;50.158;8.626;2023-02-01T05:03:01;7.40;;;4.80;;
16173;SDS011;14031;50.158;8.626;2023-02-01T05:05:28;5.43;;;4.87;;
16173;SDS011;14031;50.158;8.626;2023-02-01T05:07:55;6.73;;;4.67;;
16173;SDS011;14031;50.158;8.626;2023-02-01T05:10:24;5.37;;;4.77;;
16173;SDS011;14031;50.158;8.626;2023-02-01T05:12:50;7.17;;;5.10;;
16173;SDS011;14031;50.158;8.626;2023-02-01T05:15:36;5.23;;;4.40;;
16173;SDS011;14031;50.158;8.626;2023-02-01T05:18:06;5.57;;;4.53;;
16173;SDS011;14031;50.158;8.626;2023-02-01T05:20:37;4.47;;;4.07;;
16173;SDS011;14031;50.158;8.626;2023-02-01T05:23:04;4.83;;;4.37;;
16173;SDS011;14031;50.158;8.626;2023-02-01T05:25:31;5.23;;;4.80;;
16173;SDS011;14031;50.158;8.626;2023-02-01T05:27:58;9.70;;;4.73;;
16173;SDS011;14031;50.158;8.626;2023-02-01T05:30:24;6.40;;;4.03;;
16173;SDS011;14031;50.158;8.626;2023-02-01T05:32:53;6.30;;;4.57;;
16173;SDS011;14031;50.158;8.626;2023-02-01T05:35:20;6.13;;;4.13;;
16173;SDS011;14031;50.158;8.626;2023-02-01T05:37:46;3.97;;;3.67;;
16173;SDS011;14031;50.158;8.626;2023-02-01T05:40:13;5.20;;;3.90;;
16173;SDS011;14031;50.158;8.626;2023-02-01T05:42:40;5.53;;;4.30;;
16173;SDS011;14031;50.158;8.626;2023-02-01T05:45:07;4.70;;;4.10;;
16173;SDS011;14031;50.158;8.626;2023-02-01T05:47:34;4.43;;;4.03;;
16173;SDS011;14031;50.158;8.626;2023-02-01T05:50:03;6.13;;;3.80;;
16173;SDS011;14031;50.158;8.626;2023-02-01T05:52:31;6.03;;;4.10;;
16173;SDS011;14031;50.158;8.626;2023-02-01T05:54:58;6.23;;;3.33;;
16173;SDS011;14031;50.158;8.626;2023-02-01T05:57:25;4.73;;;3.10;;
16173;SDS011;14031;50.158;8.626;2023-02-01T05:59:51;5.07;;;3.60;;
16173;SDS011;14031;50.158;8.626;2023-02-01T06:02:18;9.73;;;3.30;;
16173;SDS011;14031;50.158;8.626;2023-02-01T06:04:46;6.30;;;3.33;;
16173;SDS011;14031;50.158;8.626;2023-02-01T06:07:14;7.50;;;3.03;;
16173;SDS011;14031;50.158;8.626;2023-02-01T06:09:41;6.37;;;3.30;;
16173;SDS011;14031;50.158;8.626;2023-02-01T06:12:09;6.50;;;3.20;;
16173;SDS011;14031;50.158;8.626;2023-02-01T06:14:36;7.87;;;3.20;;
16173;SDS011;14031;50.158;8.626;2023-02-01T06:17:03;3.50;;;2.63;;
16173;SDS011;14031;50.158;8.626;2023-02-01T06:19:30;4.97;;;3.20;;
16173;SDS011;14031;50.158;8.626;2023-02-01T06:21:57;6.93;;;3.20;;
16173;SDS011;14031;50.158;8.626;2023-02-01T06:24:25;7.73;;;2.97;;
16173;SDS011;14031;50.158;8.626;2023-02-01T06:26:52;5.93;;;3.07;;
16173;SDS011;14031;50.158;8.626;2023-02-01T06:29:18;7.73;;;4.07;;
16173;SDS011;14031;50.158;8.626;2023-02-01T06:31:45;5.03;;;2.77;;
16173;SDS011;14031;50.158;8.626;2023-02-01T06:34:12;7.03;;;2.83;;
16173;SDS011;14031;50.158;8.626;2023-02-01T06:36:39;7.53;;;3.37;;
16173;SDS011;14031;50.158;8.626;2023-02-01T06:39:05;9.27;;;2.83;;
16173;SDS011;14031;50.158;8.626;2023-02-01T06:41:33;9.43;;;3.37;;
16173;SDS011;14031;50.158;8.626;2023-02-01T06:44:00;11.13;;;3.33;;
16173;SDS011;14031;50.158;8.626;2023-02-01T06:46:27;6.07;;;2.97;;
16173;SDS011;14031;50.158;8.626;2023-02-01T06:48:54;7.70;;;3.00;;
16173;SDS011;14031;50.158;8.626;2023-02-01T06:51:21;7.27;;;2.77;;
16173;SDS011;14031;50.158;8.626;2023-02-01T06:53:50;7.43;;;3.23;;
16173;SDS011;14031;50.158;8.626;2023-02-01T06:56:17;5.77;;;2.77;;
16173;SDS011;14031;50.158;8.626;2023-02-01T06:58:46;8.43;;;3.00;;
16173;SDS011;14031;50.158;8.626;2023-02-01T07:01:13;8.07;;;3.00;;
16173;SDS011;14031;50.158;8.626;2023-02-01T07:03:40;6.50;;;3.07;;
16173;SDS011;14031;50.158;8.626;2023-02-01T07:06:07;5.77;;;2.80;;
16173;SDS011;14031;50.158;8.626;2023-02-01T07:08:35;9.00;;;3.63;;
16173;SDS011;14031;50.158;8.626;2023-02-01T07:11:03;8.70;;;3.03;;
16173;SDS011;14031;50.158;8.626;2023-02-01T07:13:31;9.03;;;2.93;;
16173;SDS011;14031;50.158;8.626;2023-02-01T07:16:00;10.23;;;3.00;;
16173;SDS011;14031;50.158;8.626;2023-02-01T07:18:27;5.60;;;3.00;;
16173;SDS011;14031;50.158;8.626;2023-02-01T07:20:55;11.33;;;3.53;;
16173;SDS011;14031;50.158;8.626;2023-02-01T07:23:22;7.80;;;3.00;;
16173;SDS011;14031;50.158;8.626;2023-02-01T07:25:49;6.77;;;3.57;;
16173;SDS011;14031;50.158;8.626;2023-02-01T07:28:19;9.50;;;2.60;;
16173;SDS011;14031;50.158;8.626;2023-02-01T07:30:46;7.77;;;2.73;;
16173;SDS011;14031;50.158;8.626;2023-02-01T07:33:17;7.97;;;2.80;;
16173;SDS011;14031;50.158;8.626;2023-02-01T07:35:45;5.10;;;3.47;;
16173;SDS011;14031;50.158;8.626;2023-02-01T07:38:11;9.67;;;3.10;;
16173;SDS011;14031;50.158;8.626;2023-02-01T07:40:38;5.60;;;3.90;;
16173;SDS011;14031;50.158;8.626;2023-02-01T07:43:05;5.60;;;3.03;;
16173;SDS011;14031;50.158;8.626;2023-02-01T07:45:32;5.93;;;3.00;;
16173;SDS011;14031;50.158;8.626;2023-02-01T07:48:00;9.67;;;3.17;;
16173;SDS011;14031;50.158;8.626;2023-02-01T07:50:28;4.37;;;3.00;;
16173;SDS011;14031;50.158;8.626;2023-02-01T07:52:56;12.03;;;3.13;;
16173;SDS011;14031;50.158;8.626;2023-02-01T07:55:24;4.77;;;3.20;;
16173;SDS011;14031;50.158;8.626;2023-02-01T07:57:51;13.07;;;3.40;;
16173;SDS011;14031;50.158;8.626;2023-02-01T08:00:18;12.73;;;3.73;;
16173;SDS011;14031;50.158;8.626;2023-02-01T08:03:03;7.40;;;3.10;;
16173;SDS011;14031;50.158;8.626;2023-02-01T08:05:32;4.23;;;3.03;;
16173;SDS011;14031;50.158;8.626;2023-02-01T08:07:58;7.53;;;3.20;;
16173;SDS011;14031;50.158;8.626;2023-02-01T08:10:25;9.83;;;3.40;;
16173;SDS011;14031;50.158;8.626;2023-02-01T08:12:57;7.97;;;2.83;;
16173;SDS011;14031;50.158;8.626;2023-02-01T08:15:24;10.47;;;3.33;;
16173;SDS011;14031;50.158;8.626;2023-02-01T08:17:51;4.90;;;3.10;;
16173;SDS011;14031;50.158;8.626;2023-02-01T08:20:19;10.67;;;3.60;;
16173;SDS011;14031;50.158;8.626;2023-02-01T08:22:49;6.43;;;3.30;;
16173;SDS011;14031;50.158;8.626;2023-02-01T08:25:16;5.23;;;2.93;;
16173;SDS011;14031;50.158;8.626;2023-02-01T08:27:43;6.93;;;3.10;;
16173;SDS011;14031;50.158;8.626;2023-02-01T08:30:10;5.40;;;3.30;;
16173;SDS011;14031;50.158;8.626;2023-02-01T08:32:37;8.77;;;3.30;;
16173;SDS011;14031;50.158;8.626;2023-02-01T08:35:04;7.10;;;3.03;;
16173;SDS011;14031;50.158;8.626;2023-02-01T08:37:31;6.60;;;3.00;;
16173;SDS011;14031;50.158;8.626;2023-02-01T08:40:00;9.13;;;3.30;;
16173;SDS011;14031;50.158;8.626;2023-02-01T08:42:26;11.40;;;2.97;;
16173;SDS011;14031;50.158;8.626;2023-02-01T08:45:11;7.67;;;2.80;;
16173;SDS011;14031;50.158;8.626;2023-02-01T08:47:37;6.83;;;3.20;;
16173;SDS011;14031;50.158;8.626;2023-02-01T08:50:04;4.90;;;2.40;;
16173;SDS011;14031;50.158;8.626;2023-02-01T08:52:32;8.60;;;3.07;;
16173;SDS011;14031;50.158;8.626;2023-02-01T08:55:00;21.57;;;4.87;;
16173;SDS011;14031;50.158;8.626;2023-02-01T08:57:27;5.83;;;3.00;;
16173;SDS011;14031;50.158;8.626;2023-02-01T08:59:53;5.13;;;2.50;;
16173;SDS011;14031;50.158;8.626;2023-02-01T09:02:20;7.00;;;2.80;;
16173;SDS011;14031;50.158;8.626;2023-02-01T09:04:47;11.00;;;2.70;;
16173;SDS011;14031;50.158;8.626;2023-02-01T09:07:14;5.80;;;3.13;;
16173;SDS011;14031;50.158;8.626;2023-02-01T09:09:41;6.77;;;2.47;;
16173;SDS011;14031;50.158;8.626;2023-02-01T09:12:10;8.20;;;3.00;;
16173;SDS011;14031;50.158;8.626;2023-02-01T09:14:37;9.77;;;2.90;;
16173;SDS011;14031;50.158;8.626;2023-02-01T09:17:04;9.37;;;2.97;;
16173;SDS011;14031;50.158;8.626;2023-02-01T09:19:31;7.20;;;2.37;;
16173;SDS011;14031;50.158;8.626;2023-02-01T09:21:59;10.23;;;3.27;;
16173;SDS011;14031;50.158;8.626;2023-02-01T09:24:26;9.07;;;3.17;;
16173;SDS011;14031;50.158;8.626;2023-02-01T09:26:53;7.00;;;2.50;;
16173;SDS011;14031;50.158;8.626;2023-02-01T09:29:21;7.87;;;3.13;;
16173;SDS011;14031;50.158;8.626;2023-02-01T09:31:47;9.93;;;2.50;;
16173;SDS011;14031;50.158;8.626;2023-02-01T09:34:14;4.20;;;2.40;;
16173;SDS011;14031;50.158;8.626;2023-02-01T09:36:41;7.43;;;2.33;;
16173;SDS011;14031;50.158;8.626;2023-02-01T09:39:08;7.83;;;2.40;;
16173;SDS011;14031;50.158;8.626;2023-02-01T09:41:40;13.93;;;3.00;;
16173;SDS011;14031;50.158;8.626;2023-02-01T09:44:30;7.70;;;2.80;;
16173;SDS011;14031;50.158;8.626;2023-02-01T09:47:04;5.23;;;2.33;;
16173;SDS011;14031;50.158;8.626;2023-02-01T09:49:39;4.93;;;2.50;;
16173;SDS011;14031;50.158;8.626;2023-02-01T09:52:15;9.20;;;2.63;;
16173;SDS011;14031;50.158;8.626;2023-02-01T09:54:47;8.80;;;2.53;;
16173;SDS011;14031;50.158;8.626;2023-02-01T09:57:23;6.77;;;2.50;;
16173;SDS011;14031;50.158;8.626;2023-02-01T09:59:54;6.27;;;2.33;;
16173;SDS011;14031;50.158;8.626;2023-02-01T10:02:27;12.70;;;2.40;;
16173;SDS011;14031;50.158;8.626;2023-02-01T10:04:55;9.40;;;2.60;;
16173;SDS011;14031;50.158;8.626;2023-02-01T10:07:26;2.60;;;1.90;;
16173;SDS011;14031;50.158;8.626;2023-02-01T10:10:01;8.37;;;2.43;;
16173;SDS011;14031;50.158;8.626;2023-02-01T10:12:44;6.90;;;2.50;;
16173;SDS011;14031;50.158;8.626;2023-02-01T10:15:27;5.30;;;1.90;;
16173;SDS011;14031;50.158;8.626;2023-02-01T10:18:03;8.27;;;2.00;;
16173;SDS011;14031;50.158;8.626;2023-02-01T10:20:45;5.90;;;2.13;;
16173;SDS011;14031;50.158;8.626;2023-02-01T10:23:26;8.87;;;2.57;;
16173;SDS011;14031;50.158;8.626;2023-02-01T10:26:09;10.83;;;2.50;;
16173;SDS011;14031;50.158;8.626;2023-02-01T10:28:43;9.13;;;2.50;;
16173;SDS011;14031;50.158;8.626;2023-02-01T10:31:15;13.63;;;2.40;;
16173;SDS011;14031;50.158;8.626;2023-02-01T10:33:43;8.47;;;2.60;;
16173;SDS011;14031;50.158;8.626;2023-02-01T10:36:13;11.27;;;2.50;;
16173;SDS011;14031;50.158;8.626;2023-02-01T10:38:44;10.67;;;2.30;;
16173;SDS011;14031;50.158;8.626;2023-02-01T10:41:13;3.70;;;2.20;;
16173;SDS011;14031;50.158;8.626;2023-02-01T10:43:42;7.33;;;2.10;;
16173;SDS011;14031;50.158;8.626;2023-02-01T10:46:10;6.10;;;2.00;;
16173;SDS011;14031;50.158;8.626;2023-02-01T10:48:38;5.27;;;2.40;;
16173;SDS011;14031;50.158;8.626;2023-02-01T10:51:07;9.03;;;2.67;;
16173;SDS011;14031;50.158;8.626;2023-02-01T10:53:41;6.00;;;2.47;;
16173;SDS011;14031;50.158;8.626;2023-02-01T10:56:14;7.23;;;2.40;;
16173;SDS011;14031;50.158;8.626;2023-02-01T10:58:47;6.97;;;2.50;;
16173;SDS011;14031;50.158;8.626;2023-02-01T11:01:16;3.80;;;2.43;;
16173;SDS011;14031;50.158;8.626;2023-02-01T11:03:50;10.60;;;2.30;;
16173;SDS011;14031;50.158;8.626;2023-02-01T11:06:22;8.30;;;2.57;;
16173;SDS011;14031;50.158;8.626;2023-02-01T11:08:54;8.00;;;2.70;;
16173;SDS011;14031;50.158;8.626;2023-02-01T11:11:23;7.03;;;2.70;;
16173;SDS011;14031;50.158;8.626;2023-02-01T11:13:51;12.97;;;3.20;;
16173;SDS011;14031;50.158;8.626;2023-02-01T11:16:20;5.30;;;2.63;;
16173;SDS011;14031;50.158;8.626;2023-02-01T11:18:52;5.40;;;2.20;;
16173;SDS011;14031;50.158;8.626;2023-02-01T11:21:20;5.00;;;2.50;;
16173;SDS011;14031;50.158;8.626;2023-02-01T11:23:48;3.83;;;2.00;;
16173;SDS011;14031;50.158;8.626;2023-02-01T11:26:19;6.40;;;1.83;;
16173;SDS011;14031;50.158;8.626;2023-02-01T11:28:50;12.20;;;2.57;;
16173;SDS011;14031;50.158;8.626;2023-02-01T11:31:20;7.80;;;2.70;;
16173;SDS011;14031;50.158;8.626;2023-02-01T11:33:50;6.37;;;2.20;;
16173;SDS011;14031;50.158;8.626;2023-02-01T11:36:21;7.27;;;2.50;;
16173;SDS011;14031;50.158;8.626;2023-02-01T11:38:52;7.23;;;2.57;;
16173;SDS011;14031;50.158;8.626;2023-02-01T11:41:22;5.87;;;2.43;;
16173;SDS011;14031;50.158;8.626;2023-02-01T11:43:51;4.90;;;2.00;;
16173;SDS011;14031;50.158;8.626;2023-02-01T11:46:21;6.20;;;2.10;;
16173;SDS011;14031;50.158;8.626;2023-02-01T11:48:53;4.43;;;2.40;;
16173;SDS011;14031;50.158;8.626;2023-02-01T11:51:30;5.67;;;2.27;;
16173;SDS011;14031;50.158;8.626;2023-02-01T11:54:10;2.93;;;1.80;;
16173;SDS011;14031;50.158;8.626;2023-02-01T11:56:49;5.33;;;2.30;;
16173;SDS011;14031;50.158;8.626;2023-02-01T11:59:30;5.83;;;2.30;;
16173;SDS011;14031;50.158;8.626;2023-02-01T12:02:11;4.97;;;2.03;;
16173;SDS011;14031;50.158;8.626;2023-02-01T12:08:07;5.90;;;2.20;;
16173;SDS011;14031;50.158;8.626;2023-02-01T12:11:02;5.83;;;1.90;;
16173;SDS011;14031;50.158;8.626;2023-02-01T12:13:46;4.27;;;1.90;;
16173;SDS011;14031;50.158;8.626;2023-02-01T12:16:23;7.60;;;2.20;;
16173;SDS011;14031;50.158;8.626;2023-02-01T12:19:08;8.47;;;2.20;;
16173;SDS011;14031;50.158;8.626;2023-02-01T12:21:49;7.60;;;2.30;;
16173;SDS011;14031;50.158;8.626;2023-02-01T12:24:28;7.20;;;2.10;;
16173;SDS011;14031;50.158;8.626;2023-02-01T12:27:16;7.30;;;2.60;;
16173;SDS011;14031;50.158;8.626;2023-02-01T12:30:14;9.70;;;2.30;;
16173;SDS011;14031;50.158;8.626;2023-02-01T12:32:57;6.20;;;1.97;;
16173;SDS011;14031;50.158;8.626;2023-02-01T12:35:38;3.10;;;1.87;;
16173;SDS011;14031;50.158;8.626;2023-02-01T12:38:16;3.83;;;2.13;;
16173;SDS011;14031;50.158;8.626;2023-02-01T12:40:52;10.13;;;2.53;;
16173;SDS011;14031;50.158;8.626;2023-02-01T12:43:33;8.70;;;2.30;;
16173;SDS011;14031;50.158;8.626;2023-02-01T12:46:06;8.47;;;2.00;;
16173;SDS011;14031;50.158;8.626;2023-02-01T12:48:37;11.43;;;2.63;;
16173;SDS011;14031;50.158;8.626;2023-02-01T12:51:09;5.00;;;1.67;;
16173;SDS011;14031;50.158;8.626;2023-02-01T12:53:47;5.50;;;1.90;;
16173;SDS011;14031;50.158;8.626;2023-02-01T12:56:20;6.17;;;2.10;;
16173;SDS011;14031;50.158;8.626;2023-02-01T12:58:52;5.17;;;1.63;;
16173;SDS011;14031;50.158;8.626;2023-02-01T13:01:21;11.67;;;1.97;;
16173;SDS011;14031;50.158;8.626;2023-02-01T13:03:56;4.53;;;2.00;;
16173;SDS011;14031;50.158;8.626;2023-02-01T13:06:31;4.43;;;2.20;;
16173;SDS011;14031;50.158;8.626;2023-02-01T13:09:04;3.83;;;2.10;;
16173;SDS011;14031;50.158;8.626;2023-02-01T13:11:39;6.50;;;2.33;;
16173;SDS011;14031;50.158;8.626;2023-02-01T13:14:11;8.20;;;2.30;;
16173;SDS011;14031;50.158;8.626;2023-02-01T13:16:51;5.80;;;1.70;;
16173;SDS011;14031;50.158;8.626;2023-02-01T13:19:20;13.87;;;3.40;;
16173;SDS011;14031;50.158;8.626;2023-02-01T13:21:53;5.27;;;2.27;;
16173;SDS011;14031;50.158;8.626;2023-02-01T13:24:32;6.33;;;2.17;;
16173;SDS011;14031;50.158;8.626;2023-02-01T13:27:03;6.10;;;2.27;;
16173;SDS011;14031;50.158;8.626;2023-02-01T13:29:29;6.53;;;2.00;;
16173;SDS011;14031;50.158;8.626;2023-02-01T13:32:05;6.97;;;3.07;;
16173;SDS011;14031;50.158;8.626;2023-02-01T13:34:46;5.60;;;1.83;;
16173;SDS011;14031;50.158;8.626;2023-02-01T13:40:35;6.57;;;2.13;;
16173;SDS011;14031;50.158;8.626;2023-02-01T13:43:06;5.30;;;2.40;;
16173;SDS011;14031;50.158;8.626;2023-02-01T13:45:41;12.37;;;2.67;;
16173;SDS011;14031;50.158;8.626;2023-02-01T13:48:16;4.43;;;2.17;;
16173;SDS011;14031;50.158;8.626;2023-02-01T13:50:49;4.73;;;1.70;;
16173;SDS011;14031;50.158;8.626;2023-02-01T13:53:21;7.50;;;2.17;;
16173;SDS011;14031;50.158;8.626;2023-02-01T13:55:56;7.97;;;2.00;;
16173;SDS011;14031;50.158;8.626;2023-02-01T13:58:30;6.13;;;2.03;;
16173;SDS011;14031;50.158;8.626;2023-02-01T14:04:00;5.20;;;2.03;;
16173;SDS011;14031;50.158;8.626;2023-02-01T14:06:36;5.63;;;2.27;;
16173;SDS011;14031;50.158;8.626;2023-02-01T14:09:19;7.90;;;2.30;;
16173;SDS011;14031;50.158;8.626;2023-02-01T14:12:04;6.13;;;1.87;;
16173;SDS011;14031;50.158;8.626;2023-02-01T14:15:18;5.33;;;1.80;;
16173;SDS011;14031;50.158;8.626;2023-02-01T14:17:51;6.03;;;2.27;;
16173;SDS011;14031;50.158;8.626;2023-02-01T14:23:20;6.87;;;2.30;;
16173;SDS011;14031;50.158;8.626;2023-02-01T14:26:06;7.40;;;1.90;;
16173;SDS011;14031;50.158;8.626;2023-02-01T14:28:38;7.07;;;2.33;;
16173;SDS011;14031;50.158;8.626;2023-02-01T14:34:18;5.90;;;1.43;;
16173;SDS011;14031;50.158;8.626;2023-02-01T14:36:57;6.80;;;2.33;;
16173;SDS011;14031;50.158;8.626;2023-02-01T14:39:31;6.07;;;2.03;;
16173;SDS011;14031;50.158;8.626;2023-02-01T14:42:05;3.37;;;1.90;;
16173;SDS011;14031;50.158;8.626;2023-02-01T14:44:48;4.27;;;1.70;;
16173;SDS011;14031;50.158;8.626;2023-02-01T14:50:03;6.27;;;1.67;;
16173;SDS011;14031;50.158;8.626;2023-02-01T14:52:49;4.87;;;1.97;;
16173;SDS011;14031;50.158;8.626;2023-02-01T14:55:27;6.53;;;2.00;;
16173;SDS011;14031;50.158;8.626;2023-02-01T14:58:00;5.10;;;1.67;;
16173;SDS011;14031;50.158;8.626;2023-02-01T15:00:32;3.73;;;2.20;;
16173;SDS011;14031;50.158;8.626;2023-02-01T15:03:13;6.67;;;2.03;;
16173;SDS011;14031;50.158;8.626;2023-02-01T15:05:54;5.63;;;1.70;;
16173;SDS011;14031;50.158;8.626;2023-02-01T15:08:24;4.27;;;1.80;;
16173;SDS011;14031;50.158;8.626;2023-02-01T15:10:53;9.40;;;2.20;;
16173;SDS011;14031;50.158;8.626;2023-02-01T15:13:22;4.43;;;1.63;;
16173;SDS011;14031;50.158;8.626;2023-02-01T15:16:02;7.10;;;1.70;;
16173;SDS011;14031;50.158;8.626;2023-02-01T15:18:30;9.77;;;2.23;;
16173;SDS011;14031;50.158;8.626;2023-02-01T15:20:58;6.97;;;2.03;;
16173;SDS011;14031;50.158;8.626;2023-02-01T15:23:26;3.83;;;1.57;;
16173;SDS011;14031;50.158;8.626;2023-02-01T15:25:54;5.27;;;1.97;;
16173;SDS011;14031;50.158;8.626;2023-02-01T15:28:21;7.40;;;2.43;;
16173;SDS011;14031;50.158;8.626;2023-02-01T15:30:53;10.27;;;3.20;;
16173;SDS011;14031;50.158;8.626;2023-02-01T15:33:23;4.33;;;1.93;;